createdAt,value
2018-09-03T00:00:56.179Z,18.71
2018-09-03T00:02:05.991Z,18.71
2018-09-03T00:03:16.085Z,18.71
2018-09-03T00:04:26.161Z,18.76
2018-09-03T00:05:36.226Z,18.76
2018-09-03T00:06:46.347Z,18.75
2018-09-03T00:07:56.417Z,18.69
2018-09-03T00:09:06.476Z,18.71
2018-09-03T00:10:16.547Z,18.74
2018-09-03T00:11:26.622Z,18.78
2018-09-03T00:12:36.704Z,18.76
2018-09-03T00:13:46.511Z,18.81
2018-09-03T00:14:56.636Z,18.76
2018-09-03T00:16:06.689Z,18.76
2018-09-03T00:17:16.749Z,18.76
2018-09-03T00:18:26.554Z,18.72
2018-09-03T00:19:36.362Z,18.72
2018-09-03T00:20:46.185Z,18.69
2018-09-03T00:21:55.982Z,18.71
2018-09-03T00:23:06.042Z,18.68
2018-09-03T00:24:16.108Z,18.63
2018-09-03T00:25:25.931Z,18.71
2018-09-03T00:26:36.037Z,18.63
2018-09-03T00:27:46.126Z,18.68
2018-09-03T00:28:56.202Z,18.71
2018-09-03T00:30:06.016Z,18.72
2018-09-03T00:31:15.831Z,18.74
2018-09-03T00:32:26.096Z,18.74
2018-09-03T00:33:36.173Z,18.74
2018-09-03T00:34:46.239Z,18.78
2018-09-03T00:35:56.329Z,18.72
2018-09-03T00:37:06.402Z,18.76
2018-09-03T00:38:16.535Z,18.79
2018-09-03T00:39:26.356Z,18.74
2018-09-03T00:40:36.433Z,18.76
2018-09-03T00:41:46.517Z,18.75
2018-09-03T00:42:56.595Z,18.81
2018-09-03T00:44:06.661Z,18.79
2018-09-03T00:45:16.724Z,18.79
2018-09-03T00:46:26.802Z,18.75
2018-09-03T00:47:36.880Z,18.74
2018-09-03T00:48:46.945Z,18.78
2018-09-03T00:49:57.067Z,18.79
2018-09-03T00:51:07.152Z,18.76
2018-09-03T00:52:17.215Z,18.79
2018-09-03T00:53:27.039Z,18.81
2018-09-03T00:54:36.833Z,18.76
2018-09-03T00:55:46.640Z,18.78
2018-09-03T00:56:56.717Z,18.81
2018-09-03T00:58:06.792Z,18.76
2018-09-03T00:59:16.850Z,18.72
2018-09-03T01:00:26.921Z,18.82
2018-09-03T01:01:37.143Z,18.86
2018-09-03T01:02:46.936Z,18.81
2018-09-03T01:03:56.482Z,18.91
2018-09-03T01:05:06.580Z,18.79
2018-09-03T01:06:16.117Z,18.84
2018-09-03T01:07:26.198Z,18.81
2018-09-03T01:08:36.006Z,18.84
2018-09-03T01:09:45.826Z,18.87
2018-09-03T01:10:55.894Z,18.87
2018-09-03T01:12:05.953Z,18.89
2018-09-03T01:13:16.080Z,18.82
2018-09-03T01:14:26.139Z,18.82
2018-09-03T01:15:36.230Z,18.79
2018-09-03T01:16:46.378Z,18.82
2018-09-03T01:17:56.474Z,18.89
2018-09-03T01:19:07.237Z,18.86
2018-09-03T01:20:17.051Z,18.87
2018-09-03T01:21:27.135Z,18.75
2018-09-03T01:22:37.215Z,18.79
2018-09-03T01:23:47.036Z,18.84
2018-09-03T01:24:56.911Z,18.76
2018-09-03T01:26:06.981Z,18.79
2018-09-03T01:27:17.106Z,18.79
2018-09-03T01:28:27.188Z,18.87
2018-09-03T01:29:37.509Z,18.78
2018-09-03T01:30:48.008Z,18.78
2018-09-03T01:31:58.104Z,18.81
2018-09-03T01:33:07.920Z,18.87
2018-09-03T01:34:17.721Z,18.86
2018-09-03T01:35:27.797Z,18.82
2018-09-03T01:36:37.889Z,18.89
2018-09-03T01:37:47.978Z,18.87
2018-09-03T01:38:58.043Z,18.87
2018-09-03T01:40:07.890Z,18.9
2018-09-03T01:41:17.983Z,18.86
2018-09-03T01:42:28.150Z,18.89
2018-09-03T01:43:37.958Z,18.91
2018-09-03T01:44:48.035Z,19
2018-09-03T01:45:58.119Z,18.91
2018-09-03T01:47:07.958Z,18.87
2018-09-03T01:48:17.778Z,18.84
2018-09-03T01:49:27.854Z,18.87
2018-09-03T01:50:37.937Z,18.86
2018-09-03T01:51:48.002Z,18.84
2018-09-03T01:52:57.833Z,18.91
2018-09-03T01:54:07.371Z,18.89
2018-09-03T01:55:16.649Z,18.86
2018-09-03T01:56:26.731Z,18.89
2018-09-03T01:57:36.801Z,18.9
2018-09-03T01:58:46.883Z,18.89
2018-09-03T01:59:56.942Z,18.9
2018-09-03T02:01:07.096Z,18.99
2018-09-03T02:02:16.676Z,18.93
2018-09-03T02:03:26.505Z,18.96
2018-09-03T02:04:36.581Z,18.94
2018-09-03T02:05:46.394Z,18.96
2018-09-03T02:06:56.466Z,18.99
2018-09-03T02:08:06.522Z,18.91
2018-09-03T02:09:16.354Z,19.05
2018-09-03T02:10:26.180Z,19.06
2018-09-03T02:11:36.041Z,19.07
2018-09-03T02:12:45.595Z,19.07
2018-09-03T02:13:55.395Z,19.09
2018-09-03T02:15:04.950Z,19.02
2018-09-03T02:16:15.251Z,19
2018-09-03T02:17:25.317Z,18.96
2018-09-03T02:18:35.396Z,19
2018-09-03T02:19:45.215Z,18.94
2018-09-03T02:20:55.011Z,19.12
2018-09-03T02:22:04.832Z,19.02
2018-09-03T02:23:14.913Z,19.12
2018-09-03T02:24:24.973Z,19.07
2018-09-03T02:25:35.066Z,19.1
2018-09-03T02:26:44.869Z,19.09
2018-09-03T02:27:54.681Z,19.16
2018-09-03T02:29:04.751Z,19.15
2018-09-03T02:30:14.850Z,19.09
2018-09-03T02:31:24.925Z,19.09
2018-09-03T02:32:34.989Z,19.19
2018-09-03T02:33:45.055Z,19.1
2018-09-03T02:34:54.901Z,19.09
2018-09-03T02:36:04.714Z,19.19
2018-09-03T02:37:14.512Z,19.24
2018-09-03T02:38:24.583Z,19.12
2018-09-03T02:39:34.673Z,19.13
2018-09-03T02:40:44.796Z,19.23
2018-09-03T02:41:54.879Z,19.17
2018-09-03T02:43:04.681Z,19.2
2018-09-03T02:44:14.773Z,19.24
2018-09-03T02:45:24.572Z,19.23
2018-09-03T02:46:34.664Z,19.23
2018-09-03T02:47:44.204Z,19.28
2018-09-03T02:48:54.301Z,19.24
2018-09-03T02:50:04.105Z,19.31
2018-09-03T02:51:13.912Z,19.34
2018-09-03T02:52:24.038Z,19.31
2018-09-03T02:53:34.095Z,19.34
2018-09-03T02:54:44.163Z,19.35
2018-09-03T02:55:54.243Z,19.38
2018-09-03T02:57:04.048Z,19.31
2018-09-03T02:58:14.160Z,19.45
2018-09-03T02:59:23.759Z,19.34
2018-09-03T03:00:33.830Z,19.43
2018-09-03T03:01:43.408Z,19.42
2018-09-03T03:02:53.484Z,19.43
2018-09-03T03:35:07.207Z,18.03
2018-09-03T03:36:17.258Z,17.86
2018-09-03T03:37:27.077Z,17.86
2018-09-03T03:38:37.146Z,17.96
2018-09-03T03:39:47.201Z,17.94
2018-09-03T03:40:57.291Z,18.01
2018-09-03T03:42:07.356Z,18.13
2018-09-03T03:43:17.431Z,18.21
2018-09-03T03:44:27.509Z,18.23
2018-09-03T03:45:37.580Z,18.29
2018-09-03T03:46:47.441Z,18.42
2018-09-03T03:47:57.248Z,18.47
2018-09-03T03:49:07.315Z,18.51
2018-09-03T03:50:17.401Z,18.65
2018-09-03T03:51:27.585Z,18.69
2018-09-03T03:52:37.764Z,18.78
2018-09-03T03:53:47.852Z,18.86
2018-09-03T03:54:57.730Z,18.91
2018-09-03T03:56:07.635Z,18.96
2018-09-03T03:57:17.441Z,18.97
2018-09-03T03:58:27.574Z,19.09
2018-09-03T03:59:37.662Z,19.07
2018-09-03T04:00:47.735Z,19.16
2018-09-03T04:01:58.069Z,19.3
2018-09-03T04:03:08.162Z,19.34
2018-09-03T04:04:19.232Z,19.43
2018-09-03T04:05:29.309Z,19.35
2018-09-03T04:06:39.397Z,19.42
2018-09-03T04:07:49.460Z,19.46
2018-09-03T04:08:59.541Z,19.56
2018-09-03T04:10:09.622Z,19.45
2018-09-03T04:11:19.708Z,19.6
2018-09-03T04:12:29.518Z,19.47
2018-09-03T04:13:39.321Z,19.55
2018-09-03T04:14:49.385Z,19.56
2018-09-03T04:15:59.511Z,19.5
2018-09-03T04:17:09.603Z,19.55
2018-09-03T04:18:19.686Z,19.57
2018-09-03T04:19:29.769Z,19.63
2018-09-03T04:20:39.838Z,19.6
2018-09-03T04:21:49.126Z,19.6
2018-09-03T04:22:59.112Z,19.61
2018-09-03T04:24:09.560Z,19.57
2018-09-03T04:25:19.650Z,19.64
2018-09-03T04:26:29.471Z,19.64
2018-09-03T04:27:39.555Z,19.74
2018-09-03T04:28:49.833Z,19.67
2018-09-03T04:30:00.289Z,19.75
2018-09-03T04:31:10.364Z,19.8
2018-09-03T04:32:20.431Z,19.75
2018-09-03T04:33:30.241Z,19.79
2018-09-03T04:34:40.320Z,19.83
2018-09-03T04:35:50.421Z,19.79
2018-09-03T04:36:59.983Z,19.85
2018-09-03T04:38:09.784Z,19.79
2018-09-03T04:39:19.605Z,19.78
2018-09-03T04:40:29.168Z,19.85
2018-09-03T04:41:38.996Z,19.97
2018-09-03T04:42:49.093Z,19.98
2018-09-03T04:43:59.174Z,20.01
2018-09-03T04:45:09.312Z,20.05
2018-09-03T04:46:19.401Z,20.15
2018-09-03T04:47:29.209Z,20.1
2018-09-03T04:48:39.017Z,20.11
2018-09-03T04:49:48.837Z,20.19
2018-09-03T04:50:58.905Z,20.22
2018-09-03T04:52:08.738Z,20.18
2018-09-03T04:53:18.822Z,20.29
2018-09-03T04:54:28.653Z,20.26
2018-09-03T04:55:38.552Z,20.38
2018-09-03T04:56:48.680Z,20.44
2018-09-03T04:57:58.749Z,20.46
2018-09-03T04:59:08.842Z,20.46
2018-09-03T05:00:18.908Z,20.53
2018-09-03T05:01:28.716Z,20.61
2018-09-03T05:02:38.837Z,20.68
2018-09-03T05:03:48.928Z,20.78
2018-09-03T05:04:59.025Z,20.82
2018-09-03T05:06:08.754Z,20.78
2018-09-03T05:07:18.871Z,20.82
2018-09-03T05:08:28.759Z,20.88
2018-09-03T05:09:38.577Z,20.81
2018-09-03T05:10:48.638Z,20.81
2018-09-03T05:11:59.099Z,20.81
2018-09-03T05:13:08.930Z,20.83
2018-09-03T05:14:19.020Z,20.76
2018-09-03T05:15:29.109Z,20.72
2018-09-03T05:16:38.916Z,20.72
2018-09-03T05:17:48.767Z,20.72
2018-09-03T05:18:58.571Z,20.66
2018-09-03T05:20:08.711Z,20.64
2018-09-03T05:21:18.551Z,20.66
2018-09-03T05:22:28.646Z,20.72
2018-09-03T05:23:38.715Z,20.71
2018-09-03T05:24:48.266Z,20.72
2018-09-03T05:25:58.351Z,20.74
2018-09-03T05:27:08.458Z,20.75
2018-09-03T05:28:18.537Z,20.75
2018-09-03T05:29:28.631Z,20.81
2018-09-03T05:30:38.716Z,20.78
2018-09-03T05:31:48.843Z,20.76
2018-09-03T05:32:58.931Z,20.86
2018-09-03T05:34:08.996Z,20.79
2018-09-03T05:35:19.059Z,20.81
2018-09-03T05:36:28.897Z,20.81
2018-09-03T05:37:38.789Z,20.9
2018-09-03T05:38:48.907Z,20.94
2018-09-03T05:39:58.730Z,20.9
2018-09-03T05:41:08.566Z,20.98
2018-09-03T05:42:18.669Z,21.08
2018-09-03T05:43:29.665Z,21.21
2018-09-03T05:44:40.748Z,21.23
2018-09-03T05:45:50.568Z,21.37
2018-09-03T05:47:00.645Z,21.52
2018-09-03T05:48:10.469Z,21.59
2018-09-03T05:49:20.599Z,21.68
2018-09-03T05:50:31.135Z,21.71
2018-09-03T05:51:41.455Z,21.76
2018-09-03T05:52:51.534Z,21.76
2018-09-03T05:54:01.627Z,21.82
2018-09-03T05:55:11.753Z,21.82
2018-09-03T05:56:21.591Z,21.86
2018-09-03T05:57:31.420Z,21.83
2018-09-03T05:58:41.499Z,21.94
2018-09-03T05:59:51.574Z,21.99
2018-09-03T06:01:01.649Z,21.99
2018-09-03T06:02:11.471Z,22.05
2018-09-03T06:03:21.559Z,22.2
2018-09-03T06:04:31.676Z,22.2
2018-09-03T06:05:41.735Z,22.3
2018-09-03T06:06:51.810Z,22.39
2018-09-03T06:08:01.897Z,22.38
2018-09-03T06:09:11.986Z,22.6
2018-09-03T06:10:22.092Z,22.79
2018-09-03T06:11:31.971Z,22.91
2018-09-03T06:12:41.806Z,22.92
2018-09-03T06:13:51.928Z,22.92
2018-09-03T06:15:02.016Z,22.88
2018-09-03T06:16:11.882Z,22.99
2018-09-03T06:17:21.976Z,22.88
2018-09-03T06:18:32.063Z,22.79
2018-09-03T06:19:42.170Z,22.75
2018-09-03T06:20:51.986Z,22.63
2018-09-03T06:22:01.538Z,22.63
2018-09-03T06:23:11.626Z,22.59
2018-09-03T06:24:21.711Z,22.51
2018-09-03T06:25:31.792Z,22.66
2018-09-03T06:26:42.021Z,22.59
2018-09-03T06:27:51.851Z,22.52
2018-09-03T06:29:01.933Z,22.67
2018-09-03T06:30:11.737Z,22.7
2018-09-03T06:31:21.836Z,22.63
2018-09-03T06:32:31.921Z,22.71
2018-09-03T06:33:41.736Z,22.78
2018-09-03T06:34:51.561Z,22.92
2018-09-03T06:36:01.913Z,22.96
2018-09-03T06:37:11.766Z,22.97
2018-09-03T06:38:21.916Z,23.06
2018-09-03T06:39:31.988Z,23.25
2018-09-03T06:40:42.076Z,23.34
2018-09-03T06:41:52.192Z,23.55
2018-09-03T06:43:02.266Z,23.77
2018-09-03T06:44:12.334Z,23.97
2018-09-03T06:45:22.417Z,24.11
2018-09-03T06:46:32.233Z,24.32
2018-09-03T06:47:42.366Z,24.37
2018-09-03T06:48:52.447Z,24.45
2018-09-03T06:50:02.530Z,24.55
2018-09-03T06:51:12.612Z,24.51
2018-09-03T06:52:22.689Z,24.51
2018-09-03T06:53:33.001Z,24.55
2018-09-03T06:54:42.957Z,24.55
2018-09-03T06:55:52.784Z,24.56
2018-09-03T06:57:02.871Z,24.56
2018-09-03T06:58:12.955Z,24.52
2018-09-03T06:59:22.778Z,24.46
2018-09-03T07:00:32.926Z,24.46
2018-09-03T07:01:43.004Z,24.58
2018-09-03T07:02:53.107Z,24.63
2018-09-03T07:04:03.194Z,24.63
2018-09-03T07:05:13.278Z,24.7
2018-09-03T07:06:23.372Z,24.75
2018-09-03T07:07:33.463Z,24.8
2018-09-03T07:08:43.551Z,24.89
2018-09-03T07:09:53.616Z,24.96
2018-09-03T07:11:03.715Z,25.17
2018-09-03T07:12:13.793Z,25.32
2018-09-03T07:13:23.600Z,25.37
2018-09-03T07:14:33.417Z,25.47
2018-09-03T07:15:43.496Z,25.42
2018-09-03T07:16:53.570Z,25.39
2018-09-03T07:18:03.641Z,25.38
2018-09-03T07:19:13.582Z,25.41
2018-09-03T07:20:23.669Z,25.3
2018-09-03T07:21:33.749Z,25.3
2018-09-03T07:22:43.827Z,25.23
2018-09-03T07:23:53.910Z,25.12
2018-09-03T07:25:03.809Z,25.01
2018-09-03T07:26:13.909Z,24.87
2018-09-03T07:27:24.005Z,24.78
2018-09-03T07:28:34.067Z,24.8
2018-09-03T07:29:43.923Z,24.78
2018-09-03T07:30:54.005Z,24.77
2018-09-03T07:32:03.878Z,24.64
2018-09-03T07:33:14.256Z,24.61
2018-09-03T07:34:24.051Z,24.7
2018-09-03T07:35:33.652Z,24.67
2018-09-03T07:36:43.837Z,24.58
2018-09-03T07:37:53.915Z,24.74
2018-09-03T07:39:03.992Z,24.82
2018-09-03T07:40:13.810Z,25.04
2018-09-03T07:41:23.640Z,25.19
2018-09-03T07:42:33.461Z,25.26
2018-09-03T07:43:43.596Z,25.39
2018-09-03T07:44:53.667Z,25.62
2018-09-03T07:46:03.742Z,25.84
2018-09-03T07:47:13.557Z,25.82
2018-09-03T07:48:23.376Z,25.89
2018-09-03T07:49:33.210Z,25.94
2018-09-03T07:50:43.309Z,25.97
2018-09-03T07:51:53.386Z,26.09
2018-09-03T07:53:03.503Z,26.22
2018-09-03T07:54:13.316Z,26.47
2018-09-03T07:55:23.466Z,26.41
2018-09-03T07:56:33.275Z,26.39
2018-09-03T07:57:42.833Z,26.67
2018-09-03T07:58:52.902Z,26.68
2018-09-03T08:00:02.991Z,26.68
2018-09-03T08:01:13.225Z,26.68
2018-09-03T08:02:23.557Z,26.64
2018-09-03T08:03:33.636Z,26.79
2018-09-03T08:04:43.711Z,26.91
2018-09-03T08:05:53.521Z,26.91
2018-09-03T08:07:03.600Z,27.11
2018-09-03T08:08:13.679Z,27.64
2018-09-03T08:09:23.803Z,27.98
2018-09-03T08:10:33.879Z,28.01
2018-09-03T08:11:43.688Z,28.05
2018-09-03T08:12:53.963Z,27.89
2018-09-03T08:14:04.192Z,27.68
2018-09-03T08:15:14.275Z,27.51
2018-09-03T08:16:24.354Z,27.16
2018-09-03T08:17:34.500Z,27.01
2018-09-03T08:18:44.341Z,26.93
2018-09-03T08:19:53.961Z,26.96
2018-09-03T08:21:04.097Z,26.94
2018-09-03T08:22:13.953Z,26.81
2018-09-03T08:23:24.040Z,26.78
2018-09-03T08:24:34.157Z,26.81
2018-09-03T08:25:44.253Z,26.78
2018-09-03T08:26:54.377Z,26.94
2018-09-03T08:28:04.492Z,26.99
2018-09-03T08:29:14.354Z,27.06
2018-09-03T08:30:24.290Z,26.99
2018-09-03T08:31:34.205Z,27.12
2018-09-03T08:32:44.386Z,27.34
2018-09-03T08:33:54.250Z,27.66
2018-09-03T08:35:04.373Z,27.81
2018-09-03T08:36:14.517Z,27.87
2018-09-03T08:37:24.078Z,27.98
2018-09-03T08:38:34.154Z,27.98
2018-09-03T08:39:44.250Z,27.98
2018-09-03T08:40:54.455Z,27.98
2018-09-03T08:42:04.537Z,28.06
2018-09-03T08:43:14.642Z,28.05
2018-09-03T08:44:24.739Z,28.06
2018-09-03T08:45:34.882Z,27.98
2018-09-03T08:46:44.972Z,27.98
2018-09-03T08:47:55.078Z,28.01
2018-09-03T08:49:05.148Z,27.96
2018-09-03T08:50:15.357Z,28.02
2018-09-03T08:51:25.537Z,28.01
2018-09-03T08:52:35.639Z,28.06
2018-09-03T08:53:45.743Z,28.12
2018-09-03T08:54:55.843Z,28.11
2018-09-03T08:56:05.939Z,28.05
2018-09-03T08:57:15.822Z,28.01
2018-09-03T08:58:25.917Z,28.03
2018-09-03T08:59:35.801Z,28.16
2018-09-03T09:00:45.664Z,28.31
2018-09-03T09:01:55.773Z,28.55
2018-09-03T09:03:05.857Z,28.67
2018-09-03T09:04:16.001Z,28.75
2018-09-03T09:05:25.851Z,28.9
2018-09-03T09:06:36.000Z,28.75
2018-09-03T09:07:46.096Z,28.63
2018-09-03T09:08:56.183Z,28.67
2018-09-03T09:10:06.118Z,28.67
2018-09-03T09:11:15.956Z,28.64
2018-09-03T09:12:25.816Z,28.72
2018-09-03T09:13:35.960Z,28.67
2018-09-03T09:14:46.080Z,28.68
2018-09-03T09:15:56.170Z,28.85
2018-09-03T09:17:06.259Z,28.91
2018-09-03T09:18:16.100Z,28.86
2018-09-03T09:19:26.198Z,28.98
2018-09-03T09:20:36.313Z,29.1
2018-09-03T09:21:46.471Z,29.11
2018-09-03T09:22:56.550Z,29.1
2018-09-03T09:24:06.652Z,29.11
2018-09-03T09:25:16.782Z,29.24
2018-09-03T09:26:26.874Z,29.33
2018-09-03T09:27:36.982Z,29.36
2018-09-03T09:28:46.807Z,29.33
2018-09-03T09:29:56.929Z,29.38
2018-09-03T09:31:06.769Z,29.32
2018-09-03T09:32:16.878Z,29.45
2018-09-03T09:33:27.023Z,29.5
2018-09-03T09:34:36.900Z,29.39
2018-09-03T09:35:47.169Z,29.47
2018-09-03T09:36:56.974Z,29.45
2018-09-03T09:38:07.099Z,29.47
2018-09-03T09:39:17.198Z,29.52
2018-09-03T09:40:27.314Z,29.48
2018-09-03T09:41:37.423Z,29.57
2018-09-03T09:42:47.268Z,29.63
2018-09-03T09:43:57.412Z,29.61
2018-09-03T09:45:07.349Z,29.79
2018-09-03T09:46:17.484Z,29.85
2018-09-03T09:47:27.347Z,29.79
2018-09-03T09:48:37.696Z,29.79
2018-09-03T09:49:47.804Z,29.85
2018-09-03T09:50:57.947Z,29.73
2018-09-03T09:52:08.172Z,29.87
2018-09-03T09:53:18.274Z,29.97
2018-09-03T09:54:28.400Z,30.03
2018-09-03T09:55:38.508Z,30.13
2018-09-03T09:56:48.346Z,30.14
2018-09-03T09:57:58.452Z,30.09
2018-09-03T09:59:08.567Z,30.06
2018-09-03T10:00:18.660Z,29.84
2018-09-03T10:01:28.731Z,29.52
2018-09-03T10:02:38.860Z,29.26
2018-09-03T10:03:48.686Z,29.01
2018-09-03T10:04:58.783Z,28.78
2018-09-03T10:06:08.643Z,28.54
2018-09-03T10:07:18.778Z,28.42
2018-09-03T10:08:28.415Z,28.35
2018-09-03T10:09:38.273Z,28.48
2018-09-03T10:10:48.118Z,28.65
2018-09-03T10:11:58.225Z,28.85
2018-09-03T10:13:08.316Z,29.01
2018-09-03T10:14:18.203Z,29.13
2018-09-03T10:15:28.301Z,29.42
2018-09-03T10:16:38.397Z,29.63
2018-09-03T10:17:48.493Z,29.98
2018-09-03T10:18:58.592Z,30.16
2018-09-03T10:20:08.527Z,30.47
2018-09-03T10:21:18.634Z,30.66
2018-09-03T10:22:28.737Z,30.81
2018-09-03T10:23:38.850Z,30.96
2018-09-03T10:24:48.947Z,31.06
2018-09-03T10:25:59.126Z,31.21
2018-09-03T10:27:09.212Z,31.26
2018-09-03T10:28:19.311Z,31.26
2018-09-03T10:29:29.425Z,31.31
2018-09-03T10:30:39.536Z,31.41
2018-09-03T10:31:49.764Z,31.58
2018-09-03T10:32:59.789Z,31.6
2018-09-03T10:34:09.880Z,31.65
2018-09-03T10:35:20.008Z,31.68
2018-09-03T10:36:30.107Z,31.72
2018-09-03T10:37:40.219Z,31.67
2018-09-03T10:38:50.311Z,31.77
2018-09-03T10:40:00.143Z,31.81
2018-09-03T10:41:10.259Z,31.91
2018-09-03T10:42:20.373Z,32
2018-09-03T10:43:30.482Z,32.03
2018-09-03T10:44:40.349Z,31.94
2018-09-03T10:45:50.180Z,31.8
2018-09-03T10:47:00.058Z,31.59
2018-09-03T10:48:10.501Z,31.5
2018-09-03T10:49:20.656Z,31.31
2018-09-03T10:50:30.769Z,31.07
2018-09-03T10:51:40.980Z,30.89
2018-09-03T10:52:51.101Z,30.79
2018-09-03T10:54:00.677Z,30.67
2018-09-03T10:55:10.537Z,30.51
2018-09-03T10:56:20.475Z,30.44
2018-09-03T10:57:30.633Z,30.34
2018-09-03T10:58:40.463Z,30.13
2018-09-03T10:59:50.591Z,30.13
2018-09-03T11:01:00.697Z,30.06
2018-09-03T11:02:10.559Z,30.03
2018-09-03T11:03:20.421Z,29.95
2018-09-03T11:04:30.528Z,29.89
2018-09-03T11:05:40.631Z,29.82
2018-09-03T11:06:50.750Z,29.69
2018-09-03T11:08:00.880Z,29.65
2018-09-03T11:09:10.974Z,29.57
2018-09-03T11:10:20.798Z,29.6
2018-09-03T11:11:30.900Z,29.38
2018-09-03T11:12:40.763Z,29.26
2018-09-03T11:13:50.610Z,29.06
2018-09-03T11:15:00.467Z,28.98
2018-09-03T11:16:10.563Z,28.76
2018-09-03T11:17:20.393Z,28.7
2018-09-03T11:18:30.537Z,28.46
2018-09-03T11:19:40.642Z,28.3
2018-09-03T11:20:50.823Z,28.21
2018-09-03T11:22:01.004Z,28.16
2018-09-03T11:23:11.109Z,28.01
2018-09-03T11:24:21.207Z,27.94
2018-09-03T11:25:31.325Z,27.89
2018-09-03T11:26:41.424Z,27.72
2018-09-03T11:27:51.526Z,27.81
2018-09-03T11:29:01.385Z,27.68
2018-09-03T11:30:11.502Z,27.81
2018-09-03T11:31:21.602Z,27.9
2018-09-03T11:32:31.465Z,27.9
2018-09-03T11:33:41.580Z,27.86
2018-09-03T11:34:51.692Z,27.79
2018-09-03T11:36:01.917Z,27.61
2018-09-03T11:37:12.044Z,27.62
2018-09-03T11:38:22.154Z,27.57
2018-09-03T11:39:32.263Z,27.52
2018-09-03T11:40:42.433Z,27.49
2018-09-03T11:41:52.090Z,27.57
2018-09-03T11:43:02.200Z,27.55
2018-09-03T11:44:12.315Z,27.51
2018-09-03T11:45:22.399Z,27.37
2018-09-03T11:46:32.229Z,27.48
2018-09-03T11:47:42.333Z,27.36
2018-09-03T11:48:52.432Z,27.48
2018-09-03T11:50:02.742Z,27.37
2018-09-03T11:51:12.861Z,27.42
2018-09-03T11:52:22.960Z,27.36
2018-09-03T11:53:32.798Z,27.28
2018-09-03T11:54:43.027Z,27.16
2018-09-03T11:55:52.885Z,27.16
2018-09-03T11:57:03.002Z,27.05
2018-09-03T11:58:13.105Z,26.91
2018-09-03T11:59:23.253Z,26.9
2018-09-03T12:00:33.509Z,26.93
2018-09-03T12:01:43.932Z,26.99
2018-09-03T12:02:53.781Z,26.93
2018-09-03T12:04:03.617Z,26.78
2018-09-03T12:05:13.067Z,26.72
2018-09-03T12:06:23.175Z,26.61
2018-09-03T12:07:33.328Z,26.45
2018-09-03T12:08:43.164Z,26.41
2018-09-03T12:09:53.252Z,26.34
2018-09-03T12:11:03.421Z,26.27
2018-09-03T12:12:13.545Z,26.23
2018-09-03T12:13:23.664Z,26.17
2018-09-03T12:14:33.795Z,26.19
2018-09-03T12:15:43.930Z,26.09
2018-09-03T12:16:54.042Z,26
2018-09-03T12:18:04.163Z,25.99
2018-09-03T12:19:14.252Z,25.88
2018-09-03T12:20:24.368Z,25.93
2018-09-03T12:21:34.477Z,25.81
2018-09-03T12:22:44.703Z,25.63
2018-09-03T12:23:54.820Z,25.66
2018-09-03T12:25:04.648Z,25.56
2018-09-03T12:26:14.270Z,25.56
2018-09-03T12:27:24.392Z,25.51
2018-09-03T12:28:34.596Z,25.44
2018-09-03T12:29:44.427Z,25.22
2018-09-03T12:30:53.994Z,25.01
2018-09-03T12:32:04.080Z,24.74
2018-09-03T12:33:14.190Z,24.37
2018-09-03T12:34:24.366Z,24.07
2018-09-03T12:35:34.507Z,23.85
2018-09-03T12:36:44.612Z,23.74
2018-09-03T12:37:54.493Z,23.57
2018-09-03T12:39:04.580Z,23.55
2018-09-03T12:40:14.732Z,23.37
2018-09-03T12:41:24.567Z,23.29
2018-09-03T12:42:34.668Z,23.24
2018-09-03T12:43:44.493Z,23.15
2018-09-03T12:44:54.618Z,23.18
2018-09-03T12:46:04.608Z,23.32
2018-09-03T12:47:14.426Z,23.29
2018-09-03T12:48:24.520Z,23.45
2018-09-03T12:49:34.639Z,23.59
2018-09-03T12:50:44.481Z,23.67
2018-09-03T12:51:54.334Z,23.87
2018-09-03T12:53:04.177Z,23.99
2018-09-03T12:54:14.279Z,24.04
2018-09-03T12:55:24.103Z,24.18
2018-09-03T12:56:34.208Z,24.32
2018-09-03T12:57:44.401Z,24.39
2018-09-03T12:58:54.706Z,24.46
2018-09-03T13:00:10.448Z,24.55
2018-09-03T13:01:20.575Z,24.45
2018-09-03T13:02:30.431Z,24.63
2018-09-03T13:03:47.543Z,24.66
2018-09-03T13:04:57.384Z,24.77
2018-09-03T13:06:07.648Z,24.9
2018-09-03T13:07:17.812Z,25.19
2018-09-03T13:08:27.974Z,25.45
2018-09-03T13:09:38.091Z,25.69
2018-09-03T13:10:48.192Z,26.03
2018-09-03T13:11:58.264Z,26.37
2018-09-03T13:13:08.210Z,26.67
2018-09-03T13:14:18.301Z,26.75
2018-09-03T13:15:28.401Z,26.89
2018-09-03T13:16:38.234Z,27.08
2018-09-03T13:17:48.074Z,27.16
2018-09-03T13:18:58.122Z,27.18
2018-09-03T13:20:08.470Z,27.11
2018-09-03T13:21:18.577Z,27.11
2018-09-03T13:22:28.678Z,27.04
2018-09-03T13:23:38.516Z,27.04
2018-09-03T13:24:48.588Z,27.05
2018-09-03T13:25:58.739Z,26.96
2018-09-03T13:27:08.843Z,26.93
2018-09-03T13:28:18.970Z,27.01
2018-09-03T13:29:28.799Z,27.13
2018-09-03T13:30:38.618Z,27.16
2018-09-03T13:31:48.521Z,27.37
2018-09-03T13:32:58.643Z,27.42
2018-09-03T13:34:08.462Z,27.49
2018-09-03T13:35:18.276Z,27.48
2018-09-03T13:36:28.379Z,27.59
2018-09-03T13:37:38.480Z,27.55
2018-09-03T13:38:48.605Z,27.51
2018-09-03T13:39:58.204Z,27.38
2018-09-03T13:41:08.349Z,27.45
2018-09-03T13:42:18.268Z,27.37
2018-09-03T13:43:28.655Z,27.18
2018-09-03T13:44:38.779Z,26.93
2018-09-03T13:45:48.906Z,26.79
2018-09-03T13:46:59.030Z,26.5
2018-09-03T13:48:09.213Z,26.37
2018-09-03T13:49:19.440Z,26.3
2018-09-03T13:50:29.641Z,26.19
2018-09-03T13:51:39.478Z,26.22
2018-09-03T13:52:49.581Z,26.19
2018-09-03T13:53:59.734Z,26.09
2018-09-03T13:55:09.683Z,26.01
2018-09-03T13:56:19.655Z,25.94
2018-09-03T13:57:29.842Z,25.86
2018-09-03T13:58:39.919Z,25.79
2018-09-03T13:59:49.743Z,25.71
2018-09-03T14:00:59.856Z,25.7
2018-09-03T14:02:09.962Z,25.71
2018-09-03T14:03:20.069Z,25.71
2018-09-03T14:04:29.983Z,25.67
2018-09-03T14:05:40.082Z,25.79
2018-09-03T14:06:50.212Z,25.79
2018-09-03T14:08:00.391Z,25.78
2018-09-03T14:09:10.513Z,25.82
2018-09-03T14:10:20.826Z,25.86
2018-09-03T14:11:31.034Z,25.84
2018-09-03T14:12:41.232Z,25.89
2018-09-03T14:13:51.339Z,26.01
2018-09-03T14:15:00.709Z,26.17
2018-09-03T14:16:11.047Z,26.27
2018-09-03T14:17:20.897Z,26.31
2018-09-03T14:18:31.025Z,26.38
2018-09-03T14:19:41.284Z,26.56
2018-09-03T14:20:51.041Z,26.6
2018-09-03T14:22:01.180Z,26.63
2018-09-03T14:23:11.341Z,26.84
2018-09-03T14:24:21.415Z,27
2018-09-03T14:25:31.515Z,27.01
2018-09-03T14:26:41.385Z,27.06
2018-09-03T14:27:51.529Z,27.12
2018-09-03T14:29:01.358Z,27.18
2018-09-03T14:30:11.193Z,27.18
2018-09-03T14:31:21.280Z,27.21
2018-09-03T14:32:31.090Z,27.13
2018-09-03T14:33:41.231Z,27.09
2018-09-03T14:34:51.305Z,27.11
2018-09-03T14:36:01.145Z,26.97
2018-09-03T14:37:11.565Z,27.06
2018-09-03T14:38:21.388Z,27.09
2018-09-03T14:39:31.534Z,27.01
2018-09-03T14:40:41.650Z,27.04
2018-09-03T14:41:51.483Z,26.97
2018-09-03T14:43:01.460Z,27.01
2018-09-03T14:44:11.866Z,26.94
2018-09-03T14:45:21.709Z,26.97
2018-09-03T14:46:32.044Z,26.94
2018-09-03T14:47:42.161Z,26.94
2018-09-03T14:48:52.274Z,27.05
2018-09-03T14:50:02.371Z,27.05
2018-09-03T14:51:12.532Z,26.99
2018-09-03T14:52:22.364Z,26.94
2018-09-03T14:53:32.476Z,26.91
2018-09-03T14:54:42.575Z,26.97
2018-09-03T14:55:52.689Z,26.96
2018-09-03T14:57:02.785Z,26.91
2018-09-03T14:58:12.879Z,26.74
2018-09-03T14:59:22.981Z,26.72
2018-09-03T15:00:33.112Z,26.57
2018-09-03T15:01:43.219Z,26.41
2018-09-03T15:02:53.352Z,26.38
2018-09-03T15:04:03.588Z,26.27
2018-09-03T15:05:13.847Z,26.26
2018-09-03T15:06:23.955Z,26.16
2018-09-03T15:07:34.063Z,26.16
2018-09-03T15:08:44.248Z,26.07
2018-09-03T15:09:54.102Z,26.04
2018-09-03T15:11:04.202Z,26
2018-09-03T15:12:14.303Z,25.94
2018-09-03T15:13:24.159Z,25.91
2018-09-03T15:14:34.323Z,25.75
2018-09-03T15:15:44.488Z,25.71
2018-09-03T15:16:54.322Z,25.57
2018-09-03T15:18:04.419Z,25.6
2018-09-03T15:19:14.514Z,25.56
2018-09-03T15:20:24.676Z,25.54
2018-09-03T15:21:34.952Z,25.47
2018-09-03T15:22:44.814Z,25.49
2018-09-03T15:23:54.938Z,25.52
2018-09-03T15:25:05.338Z,25.54
2018-09-03T15:26:15.813Z,25.64
2018-09-03T15:27:25.901Z,25.63
2018-09-03T15:28:36.024Z,25.59
2018-09-03T15:29:46.145Z,25.56
2018-09-03T15:30:56.293Z,25.51
2018-09-03T15:32:06.418Z,25.45
2018-09-03T15:33:16.266Z,25.45
2018-09-03T15:34:26.111Z,25.48
2018-09-03T15:35:36.221Z,25.42